VTSP Airport Information

Runway Information
Runway 09 Length 9843 ft width 148 ft
Elevation 19 ft Threshold ft Heading 85
Runway 27 Length 9843 ft Width 148 ft
Elevation 82 ft Threshold ft Heading 265
Airport Frequencies
Type APP Name APP Frequency 124.7 MHZ
Type ATIS Name ATIS Frequency 128 MHZ
Type GND Name GND Frequency 121.9 MHZ
Type TWR Name TWR Frequency 118.1 MHZ
Airport Navaids
Type NDB Name Phuket Frequency 360 KHZ
Type VOR-DME Name Phuket Frequency 116900 KHZ
Airport Weather Information & NOTAM
ADDS - METARS form results

(0121 UTC 13 September 2022)
Data provider http://aviationweather.gov/metar/data/
 
METAR text: VTSP 130100Z 33005KT 9000 FEW015CB SCT020 24/24 Q1011 NOSIG
Conditions at: VTSP (PHUKET INTL AIRP, TH) observed 0100 UTC 13 September 2022
Temperature: 24.0°C (75°F)
Dewpoint: 24.0°C (75°F) [RH = 100%]
Pressure (altimeter): 29.85 inches Hg (1011.0 mb)
Winds: from the NNW (330 degrees) at 6 MPH (5 knots; 2.6 m/s)
Visibility: 6 miles ( 9 km)
Ceiling: at least 12,000 feet AGL
Clouds: few clouds at 1500 feet AGL
scattered clouds at 2000 feet AGL
Weather: no significant weather observed at this time

METAR text: VTSP 130030Z 31004KT 270V010 9999 -RA FEW015CB SCT020 25/24 Q1011 NOSIG
Conditions at: VTSP (PHUKET INTL AIRP, TH) observed 0030 UTC 13 September 2022
Temperature: 25.0°C (77°F)
Dewpoint: 24.0°C (75°F) [RH = 94%]
Pressure (altimeter): 29.85 inches Hg (1011.0 mb)
Winds: from the NW (310 degrees) at 5 MPH (4 knots; 2.1 m/s)
Visibility: 6 or more miles (10+ km)
Ceiling: at least 12,000 feet AGL
Clouds: few clouds at 1500 feet AGL
scattered clouds at 2000 feet AGL
Weather: -RA  (light rain)

Forecast for: VTSP (PHUKET INTL AIRP, TH)
Text: TAF VTSP 122300Z 1300/1406 29008KT 9999 SCT020
Forecast period: 0000 UTC 13 September 2022 to 0600 UTC 14 September 2022
Forecast type: FROM: standard forecast or significant change
Winds: from the WNW (290 degrees) at 9 MPH (8 knots; 4.1 m/s)
Visibility: 6 or more miles (10+ km)
Ceiling: at least 12,000 feet AGL
Clouds: scattered clouds at 2000 feet AGL
Weather: no significant weather forecast for this period
Text: TEMPO 1300/1306 25007G25KT 3000 TSRA FEW018CB SCT020 BKN100
Forecast period: 0000 to 0600 UTC 13 September 2022
Forecast type: TEMPORARY: The following changes expected for less than half the time period
Winds: from the WSW (250 degrees) at 8 MPH (7 knots; 3.6 m/s)
gusting to 29 MPH (25 knots; 12.9 m/s)
Visibility: 1.86 miles (2.99 km)
Ceiling: 10000 feet AGL
Clouds: few clouds at 1800 feet AGL
scattered clouds at 2000 feet AGL
broken clouds at 10000 feet AGL
Weather: TSRA  (rain associated with thunderstorm(s))